sensor_id;sensor_type;location;lat;lon;timestamp;P1;durP1;ratioP1;P2;durP2;ratioP2
73814;SDS011;62145;55.648;37.602;2023-04-09T00:01:47;16.73;;;9.87;;
73814;SDS011;62145;55.648;37.602;2023-04-09T00:04:13;20.48;;;10.43;;
73814;SDS011;62145;55.648;37.602;2023-04-09T00:06:38;21.23;;;11.30;;
73814;SDS011;62145;55.648;37.602;2023-04-09T00:09:04;21.02;;;10.32;;
73814;SDS011;62145;55.648;37.602;2023-04-09T00:11:30;19.97;;;10.47;;
73814;SDS011;62145;55.648;37.602;2023-04-09T00:13:56;22.05;;;10.23;;
73814;SDS011;62145;55.648;37.602;2023-04-09T00:16:23;20.35;;;10.27;;
73814;SDS011;62145;55.648;37.602;2023-04-09T00:18:48;21.08;;;10.77;;
73814;SDS011;62145;55.648;37.602;2023-04-09T00:21:14;22.00;;;10.85;;
73814;SDS011;62145;55.648;37.602;2023-04-09T00:23:41;21.00;;;9.85;;
73814;SDS011;62145;55.648;37.602;2023-04-09T00:26:07;21.65;;;10.77;;
73814;SDS011;62145;55.648;37.602;2023-04-09T00:28:33;21.45;;;10.18;;
73814;SDS011;62145;55.648;37.602;2023-04-09T00:31:00;25.90;;;10.83;;
73814;SDS011;62145;55.648;37.602;2023-04-09T00:33:26;19.10;;;10.30;;
73814;SDS011;62145;55.648;37.602;2023-04-09T00:35:52;20.02;;;10.65;;
73814;SDS011;62145;55.648;37.602;2023-04-09T00:38:18;21.80;;;10.32;;
73814;SDS011;62145;55.648;37.602;2023-04-09T00:40:47;20.10;;;10.60;;
73814;SDS011;62145;55.648;37.602;2023-04-09T00:43:15;20.55;;;10.57;;
73814;SDS011;62145;55.648;37.602;2023-04-09T00:45:42;20.58;;;10.75;;
73814;SDS011;62145;55.648;37.602;2023-04-09T00:48:09;21.75;;;10.63;;
73814;SDS011;62145;55.648;37.602;2023-04-09T00:50:35;27.20;;;11.10;;
73814;SDS011;62145;55.648;37.602;2023-04-09T00:53:01;21.40;;;11.13;;
73814;SDS011;62145;55.648;37.602;2023-04-09T00:55:27;19.45;;;10.65;;
73814;SDS011;62145;55.648;37.602;2023-04-09T00:57:53;21.70;;;11.10;;
73814;SDS011;62145;55.648;37.602;2023-04-09T01:00:19;22.23;;;11.60;;
73814;SDS011;62145;55.648;37.602;2023-04-09T01:02:45;23.00;;;11.18;;
73814;SDS011;62145;55.648;37.602;2023-04-09T01:05:11;24.13;;;11.60;;
73814;SDS011;62145;55.648;37.602;2023-04-09T01:11:18;23.33;;;11.60;;
73814;SDS011;62145;55.648;37.602;2023-04-09T01:16:26;21.00;;;11.35;;
73814;SDS011;62145;55.648;37.602;2023-04-09T01:18:58;25.38;;;11.20;;
73814;SDS011;62145;55.648;37.602;2023-04-09T01:21:32;22.73;;;11.40;;
73814;SDS011;62145;55.648;37.602;2023-04-09T01:24:01;25.63;;;12.40;;
73814;SDS011;62145;55.648;37.602;2023-04-09T01:29:52;23.83;;;11.90;;
73814;SDS011;62145;55.648;37.602;2023-04-09T01:32:18;22.58;;;11.73;;
73814;SDS011;62145;55.648;37.602;2023-04-09T01:34:45;21.88;;;12.63;;
73814;SDS011;62145;55.648;37.602;2023-04-09T01:37:12;22.48;;;12.25;;
73814;SDS011;62145;55.648;37.602;2023-04-09T01:39:38;23.67;;;12.70;;
73814;SDS011;62145;55.648;37.602;2023-04-09T01:42:04;22.98;;;12.60;;
73814;SDS011;62145;55.648;37.602;2023-04-09T01:44:36;24.00;;;12.90;;
73814;SDS011;62145;55.648;37.602;2023-04-09T01:47:03;23.48;;;12.65;;
73814;SDS011;62145;55.648;37.602;2023-04-09T01:49:30;24.10;;;12.95;;
73814;SDS011;62145;55.648;37.602;2023-04-09T01:51:56;26.17;;;12.98;;
73814;SDS011;62145;55.648;37.602;2023-04-09T01:54:22;27.00;;;13.30;;
73814;SDS011;62145;55.648;37.602;2023-04-09T01:56:48;27.80;;;13.82;;
73814;SDS011;62145;55.648;37.602;2023-04-09T01:59:14;25.33;;;13.55;;
73814;SDS011;62145;55.648;37.602;2023-04-09T02:01:48;26.17;;;13.17;;
73814;SDS011;62145;55.648;37.602;2023-04-09T02:04:25;25.75;;;13.52;;
73814;SDS011;62145;55.648;37.602;2023-04-09T02:09:55;24.92;;;13.10;;
73814;SDS011;62145;55.648;37.602;2023-04-09T02:12:21;23.95;;;12.68;;
73814;SDS011;62145;55.648;37.602;2023-04-09T02:14:50;23.73;;;12.93;;
73814;SDS011;62145;55.648;37.602;2023-04-09T02:17:16;22.70;;;13.02;;
73814;SDS011;62145;55.648;37.602;2023-04-09T02:19:44;25.50;;;13.18;;
73814;SDS011;62145;55.648;37.602;2023-04-09T02:22:12;23.52;;;12.52;;
73814;SDS011;62145;55.648;37.602;2023-04-09T02:24:38;25.45;;;12.75;;
73814;SDS011;62145;55.648;37.602;2023-04-09T02:27:07;25.07;;;13.03;;
73814;SDS011;62145;55.648;37.602;2023-04-09T02:29:33;27.55;;;13.18;;
73814;SDS011;62145;55.648;37.602;2023-04-09T02:31:59;24.55;;;12.40;;
73814;SDS011;62145;55.648;37.602;2023-04-09T02:34:26;24.77;;;12.35;;
73814;SDS011;62145;55.648;37.602;2023-04-09T02:37:10;25.07;;;12.63;;
73814;SDS011;62145;55.648;37.602;2023-04-09T02:39:36;22.20;;;11.60;;
73814;SDS011;62145;55.648;37.602;2023-04-09T02:42:02;23.42;;;12.13;;
73814;SDS011;62145;55.648;37.602;2023-04-09T02:44:28;22.63;;;12.25;;
73814;SDS011;62145;55.648;37.602;2023-04-09T02:46:54;26.45;;;13.45;;
73814;SDS011;62145;55.648;37.602;2023-04-09T02:49:20;23.52;;;12.02;;
73814;SDS011;62145;55.648;37.602;2023-04-09T02:51:46;23.70;;;11.97;;
73814;SDS011;62145;55.648;37.602;2023-04-09T02:54:12;23.08;;;12.27;;
73814;SDS011;62145;55.648;37.602;2023-04-09T02:56:38;21.73;;;11.90;;
73814;SDS011;62145;55.648;37.602;2023-04-09T02:59:04;22.50;;;11.85;;
73814;SDS011;62145;55.648;37.602;2023-04-09T03:01:29;24.05;;;12.25;;
73814;SDS011;62145;55.648;37.602;2023-04-09T03:03:55;29.00;;;12.70;;
73814;SDS011;62145;55.648;37.602;2023-04-09T03:06:21;23.98;;;12.23;;
73814;SDS011;62145;55.648;37.602;2023-04-09T03:08:47;26.97;;;12.43;;
73814;SDS011;62145;55.648;37.602;2023-04-09T03:11:13;22.40;;;11.88;;
73814;SDS011;62145;55.648;37.602;2023-04-09T03:13:38;24.48;;;12.57;;
73814;SDS011;62145;55.648;37.602;2023-04-09T03:16:04;26.75;;;12.65;;
73814;SDS011;62145;55.648;37.602;2023-04-09T03:18:30;22.30;;;11.15;;
73814;SDS011;62145;55.648;37.602;2023-04-09T03:20:56;27.73;;;12.37;;
73814;SDS011;62145;55.648;37.602;2023-04-09T03:23:22;23.50;;;12.48;;
73814;SDS011;62145;55.648;37.602;2023-04-09T03:25:48;27.02;;;12.02;;
73814;SDS011;62145;55.648;37.602;2023-04-09T03:28:24;23.70;;;12.50;;
73814;SDS011;62145;55.648;37.602;2023-04-09T03:30:52;25.10;;;11.57;;
73814;SDS011;62145;55.648;37.602;2023-04-09T03:33:18;27.23;;;13.00;;
73814;SDS011;62145;55.648;37.602;2023-04-09T03:35:50;25.35;;;11.77;;
73814;SDS011;62145;55.648;37.602;2023-04-09T03:38:23;22.58;;;12.07;;
73814;SDS011;62145;55.648;37.602;2023-04-09T03:40:50;26.00;;;12.70;;
73814;SDS011;62145;55.648;37.602;2023-04-09T03:43:15;24.03;;;12.37;;
73814;SDS011;62145;55.648;37.602;2023-04-09T03:45:47;25.67;;;12.77;;
73814;SDS011;62145;55.648;37.602;2023-04-09T03:48:24;27.30;;;13.07;;
73814;SDS011;62145;55.648;37.602;2023-04-09T03:50:50;22.27;;;12.15;;
73814;SDS011;62145;55.648;37.602;2023-04-09T03:53:24;26.03;;;12.90;;
73814;SDS011;62145;55.648;37.602;2023-04-09T03:55:53;24.90;;;12.77;;
73814;SDS011;62145;55.648;37.602;2023-04-09T03:58:23;25.33;;;12.88;;
73814;SDS011;62145;55.648;37.602;2023-04-09T04:00:49;29.67;;;13.73;;
73814;SDS011;62145;55.648;37.602;2023-04-09T04:03:35;24.65;;;12.50;;
73814;SDS011;62145;55.648;37.602;2023-04-09T04:06:28;27.17;;;12.20;;
73814;SDS011;62145;55.648;37.602;2023-04-09T04:09:03;26.95;;;12.80;;
73814;SDS011;62145;55.648;37.602;2023-04-09T04:11:42;25.85;;;12.30;;
73814;SDS011;62145;55.648;37.602;2023-04-09T04:14:09;25.75;;;13.75;;
73814;SDS011;62145;55.648;37.602;2023-04-09T04:16:35;24.60;;;13.35;;
73814;SDS011;62145;55.648;37.602;2023-04-09T04:19:02;28.03;;;13.03;;
73814;SDS011;62145;55.648;37.602;2023-04-09T04:21:31;25.58;;;12.70;;
73814;SDS011;62145;55.648;37.602;2023-04-09T04:24:00;25.33;;;12.73;;
73814;SDS011;62145;55.648;37.602;2023-04-09T04:26:27;28.70;;;13.48;;
73814;SDS011;62145;55.648;37.602;2023-04-09T04:28:53;28.67;;;13.53;;
73814;SDS011;62145;55.648;37.602;2023-04-09T04:31:37;27.10;;;13.50;;
73814;SDS011;62145;55.648;37.602;2023-04-09T04:34:03;34.55;;;13.65;;
73814;SDS011;62145;55.648;37.602;2023-04-09T04:36:30;27.63;;;13.90;;
73814;SDS011;62145;55.648;37.602;2023-04-09T04:38:56;25.67;;;13.32;;
73814;SDS011;62145;55.648;37.602;2023-04-09T04:41:30;27.38;;;13.55;;
73814;SDS011;62145;55.648;37.602;2023-04-09T04:44:09;28.05;;;13.77;;
73814;SDS011;62145;55.648;37.602;2023-04-09T04:46:35;29.00;;;14.48;;
73814;SDS011;62145;55.648;37.602;2023-04-09T04:49:01;24.30;;;13.43;;
73814;SDS011;62145;55.648;37.602;2023-04-09T04:51:32;29.20;;;14.20;;
73814;SDS011;62145;55.648;37.602;2023-04-09T04:54:06;27.00;;;13.88;;
73814;SDS011;62145;55.648;37.602;2023-04-09T04:56:31;27.15;;;13.77;;
73814;SDS011;62145;55.648;37.602;2023-04-09T04:59:02;27.30;;;14.88;;
73814;SDS011;62145;55.648;37.602;2023-04-09T05:01:37;26.37;;;14.10;;
73814;SDS011;62145;55.648;37.602;2023-04-09T05:04:07;29.92;;;13.82;;
73814;SDS011;62145;55.648;37.602;2023-04-09T05:06:35;25.23;;;13.80;;
73814;SDS011;62145;55.648;37.602;2023-04-09T05:09:05;27.52;;;13.90;;
73814;SDS011;62145;55.648;37.602;2023-04-09T05:11:39;28.60;;;13.70;;
73814;SDS011;62145;55.648;37.602;2023-04-09T05:14:11;24.23;;;14.27;;
73814;SDS011;62145;55.648;37.602;2023-04-09T05:16:37;26.75;;;14.23;;
73814;SDS011;62145;55.648;37.602;2023-04-09T05:19:04;29.45;;;13.20;;
73814;SDS011;62145;55.648;37.602;2023-04-09T05:21:30;27.25;;;13.40;;
73814;SDS011;62145;55.648;37.602;2023-04-09T05:23:56;26.40;;;13.40;;
73814;SDS011;62145;55.648;37.602;2023-04-09T05:26:23;24.48;;;13.85;;
73814;SDS011;62145;55.648;37.602;2023-04-09T05:28:56;22.40;;;13.27;;
73814;SDS011;62145;55.648;37.602;2023-04-09T05:31:22;26.55;;;13.60;;
73814;SDS011;62145;55.648;37.602;2023-04-09T05:34:11;26.02;;;14.48;;
73814;SDS011;62145;55.648;37.602;2023-04-09T05:36:43;24.83;;;14.50;;
73814;SDS011;62145;55.648;37.602;2023-04-09T05:39:09;27.27;;;14.02;;
73814;SDS011;62145;55.648;37.602;2023-04-09T05:41:35;23.05;;;14.07;;
73814;SDS011;62145;55.648;37.602;2023-04-09T05:44:21;26.60;;;14.00;;
73814;SDS011;62145;55.648;37.602;2023-04-09T05:46:49;24.77;;;14.25;;
73814;SDS011;62145;55.648;37.602;2023-04-09T05:49:19;25.70;;;13.97;;
73814;SDS011;62145;55.648;37.602;2023-04-09T05:51:49;22.67;;;13.93;;
73814;SDS011;62145;55.648;37.602;2023-04-09T05:54:20;27.45;;;14.45;;
73814;SDS011;62145;55.648;37.602;2023-04-09T05:56:46;27.20;;;14.50;;
73814;SDS011;62145;55.648;37.602;2023-04-09T05:59:13;24.80;;;14.38;;
73814;SDS011;62145;55.648;37.602;2023-04-09T06:01:39;25.03;;;14.23;;
73814;SDS011;62145;55.648;37.602;2023-04-09T06:04:05;29.23;;;14.90;;
73814;SDS011;62145;55.648;37.602;2023-04-09T06:06:31;24.15;;;14.02;;
73814;SDS011;62145;55.648;37.602;2023-04-09T06:08:58;25.30;;;14.43;;
73814;SDS011;62145;55.648;37.602;2023-04-09T06:11:43;25.95;;;14.32;;
73814;SDS011;62145;55.648;37.602;2023-04-09T06:14:09;26.80;;;14.73;;
73814;SDS011;62145;55.648;37.602;2023-04-09T06:16:40;30.75;;;15.02;;
73814;SDS011;62145;55.648;37.602;2023-04-09T06:19:06;23.50;;;13.77;;
73814;SDS011;62145;55.648;37.602;2023-04-09T06:21:32;28.77;;;14.47;;
73814;SDS011;62145;55.648;37.602;2023-04-09T06:23:58;26.45;;;13.93;;
73814;SDS011;62145;55.648;37.602;2023-04-09T06:26:23;26.17;;;14.33;;
73814;SDS011;62145;55.648;37.602;2023-04-09T06:28:49;23.27;;;13.60;;
73814;SDS011;62145;55.648;37.602;2023-04-09T06:31:16;28.00;;;14.27;;
73814;SDS011;62145;55.648;37.602;2023-04-09T06:33:42;24.40;;;13.32;;
73814;SDS011;62145;55.648;37.602;2023-04-09T06:36:07;26.63;;;13.83;;
73814;SDS011;62145;55.648;37.602;2023-04-09T06:38:33;22.17;;;13.68;;
73814;SDS011;62145;55.648;37.602;2023-04-09T06:40:59;33.07;;;13.73;;
73814;SDS011;62145;55.648;37.602;2023-04-09T06:43:25;25.20;;;13.93;;
73814;SDS011;62145;55.648;37.602;2023-04-09T06:45:51;29.48;;;14.27;;
73814;SDS011;62145;55.648;37.602;2023-04-09T06:48:19;26.33;;;14.35;;
73814;SDS011;62145;55.648;37.602;2023-04-09T06:50:45;23.77;;;13.23;;
73814;SDS011;62145;55.648;37.602;2023-04-09T06:53:11;27.17;;;13.90;;
73814;SDS011;62145;55.648;37.602;2023-04-09T06:55:39;26.77;;;13.68;;
73814;SDS011;62145;55.648;37.602;2023-04-09T06:58:05;24.83;;;13.63;;
73814;SDS011;62145;55.648;37.602;2023-04-09T07:00:31;26.27;;;13.07;;
73814;SDS011;62145;55.648;37.602;2023-04-09T07:03:00;24.58;;;13.13;;
73814;SDS011;62145;55.648;37.602;2023-04-09T07:05:25;27.30;;;13.38;;
73814;SDS011;62145;55.648;37.602;2023-04-09T07:07:51;24.93;;;13.37;;
73814;SDS011;62145;55.648;37.602;2023-04-09T07:10:17;24.83;;;12.40;;
73814;SDS011;62145;55.648;37.602;2023-04-09T07:12:43;27.35;;;12.57;;
73814;SDS011;62145;55.648;37.602;2023-04-09T07:15:09;25.00;;;12.10;;
73814;SDS011;62145;55.648;37.602;2023-04-09T07:17:35;27.65;;;12.85;;
73814;SDS011;62145;55.648;37.602;2023-04-09T07:20:00;21.93;;;12.07;;
73814;SDS011;62145;55.648;37.602;2023-04-09T07:22:28;21.08;;;12.23;;
73814;SDS011;62145;55.648;37.602;2023-04-09T07:24:54;20.75;;;12.02;;
73814;SDS011;62145;55.648;37.602;2023-04-09T07:29:49;28.00;;;12.30;;
73814;SDS011;62145;55.648;37.602;2023-04-09T07:32:15;23.23;;;12.43;;
73814;SDS011;62145;55.648;37.602;2023-04-09T07:34:42;22.08;;;11.77;;
73814;SDS011;62145;55.648;37.602;2023-04-09T07:37:08;20.05;;;11.15;;
73814;SDS011;62145;55.648;37.602;2023-04-09T07:39:34;21.50;;;11.98;;
73814;SDS011;62145;55.648;37.602;2023-04-09T07:42:04;18.80;;;11.33;;
73814;SDS011;62145;55.648;37.602;2023-04-09T07:44:33;22.13;;;11.25;;
73814;SDS011;62145;55.648;37.602;2023-04-09T07:47:04;19.55;;;11.15;;
73814;SDS011;62145;55.648;37.602;2023-04-09T07:49:31;19.50;;;11.00;;
73814;SDS011;62145;55.648;37.602;2023-04-09T07:51:57;18.73;;;10.90;;
73814;SDS011;62145;55.648;37.602;2023-04-09T07:54:24;17.80;;;10.83;;
73814;SDS011;62145;55.648;37.602;2023-04-09T07:56:50;18.33;;;9.82;;
73814;SDS011;62145;55.648;37.602;2023-04-09T07:59:16;20.73;;;10.18;;
73814;SDS011;62145;55.648;37.602;2023-04-09T08:01:42;14.55;;;8.80;;
73814;SDS011;62145;55.648;37.602;2023-04-09T08:04:08;18.67;;;10.07;;
73814;SDS011;62145;55.648;37.602;2023-04-09T08:06:35;17.98;;;9.73;;
73814;SDS011;62145;55.648;37.602;2023-04-09T08:09:01;18.80;;;9.50;;
73814;SDS011;62145;55.648;37.602;2023-04-09T08:11:27;15.63;;;9.73;;
73814;SDS011;62145;55.648;37.602;2023-04-09T08:13:53;17.90;;;9.73;;
73814;SDS011;62145;55.648;37.602;2023-04-09T08:16:20;19.77;;;10.20;;
73814;SDS011;62145;55.648;37.602;2023-04-09T08:18:47;19.92;;;9.82;;
73814;SDS011;62145;55.648;37.602;2023-04-09T08:21:14;17.73;;;10.25;;
73814;SDS011;62145;55.648;37.602;2023-04-09T08:23:40;17.37;;;10.37;;
73814;SDS011;62145;55.648;37.602;2023-04-09T08:26:06;15.00;;;9.70;;
73814;SDS011;62145;55.648;37.602;2023-04-09T08:28:32;17.48;;;9.90;;
73814;SDS011;62145;55.648;37.602;2023-04-09T08:30:57;16.87;;;10.30;;
73814;SDS011;62145;55.648;37.602;2023-04-09T08:33:23;17.70;;;10.50;;
73814;SDS011;62145;55.648;37.602;2023-04-09T08:35:49;19.75;;;11.48;;
73814;SDS011;62145;55.648;37.602;2023-04-09T08:38:15;18.77;;;10.57;;
73814;SDS011;62145;55.648;37.602;2023-04-09T08:40:41;18.35;;;9.85;;
73814;SDS011;62145;55.648;37.602;2023-04-09T08:43:07;14.80;;;9.33;;
73814;SDS011;62145;55.648;37.602;2023-04-09T08:45:34;18.40;;;10.50;;
73814;SDS011;62145;55.648;37.602;2023-04-09T08:48:00;14.80;;;9.82;;
73814;SDS011;62145;55.648;37.602;2023-04-09T08:50:30;32.58;;;18.30;;
73814;SDS011;62145;55.648;37.602;2023-04-09T08:52:58;26.03;;;13.73;;
73814;SDS011;62145;55.648;37.602;2023-04-09T08:55:27;17.60;;;9.70;;
73814;SDS011;62145;55.648;37.602;2023-04-09T08:57:52;17.25;;;9.10;;
73814;SDS011;62145;55.648;37.602;2023-04-09T09:00:18;18.73;;;9.90;;
73814;SDS011;62145;55.648;37.602;2023-04-09T09:03:00;15.82;;;9.25;;
73814;SDS011;62145;55.648;37.602;2023-04-09T09:05:35;13.80;;;9.35;;
73814;SDS011;62145;55.648;37.602;2023-04-09T09:08:02;15.55;;;8.85;;
73814;SDS011;62145;55.648;37.602;2023-04-09T09:10:43;15.37;;;9.50;;
73814;SDS011;62145;55.648;37.602;2023-04-09T09:13:16;17.50;;;9.60;;
73814;SDS011;62145;55.648;37.602;2023-04-09T09:15:43;15.60;;;9.43;;
73814;SDS011;62145;55.648;37.602;2023-04-09T09:18:10;16.88;;;9.32;;
73814;SDS011;62145;55.648;37.602;2023-04-09T09:20:36;14.23;;;9.07;;
73814;SDS011;62145;55.648;37.602;2023-04-09T09:23:02;20.17;;;9.98;;
73814;SDS011;62145;55.648;37.602;2023-04-09T09:25:28;16.30;;;9.90;;
73814;SDS011;62145;55.648;37.602;2023-04-09T09:27:55;18.08;;;9.85;;
73814;SDS011;62145;55.648;37.602;2023-04-09T09:30:34;15.40;;;9.43;;
73814;SDS011;62145;55.648;37.602;2023-04-09T09:33:05;17.27;;;9.02;;
73814;SDS011;62145;55.648;37.602;2023-04-09T09:35:45;15.63;;;9.55;;
73814;SDS011;62145;55.648;37.602;2023-04-09T09:38:15;15.68;;;9.38;;
73814;SDS011;62145;55.648;37.602;2023-04-09T09:40:41;15.02;;;8.82;;
73814;SDS011;62145;55.648;37.602;2023-04-09T09:43:07;18.00;;;9.30;;
73814;SDS011;62145;55.648;37.602;2023-04-09T09:45:35;14.55;;;9.70;;
73814;SDS011;62145;55.648;37.602;2023-04-09T09:48:01;17.95;;;10.20;;
73814;SDS011;62145;55.648;37.602;2023-04-09T09:50:28;18.40;;;9.45;;
73814;SDS011;62145;55.648;37.602;2023-04-09T09:53:00;16.93;;;9.63;;
73814;SDS011;62145;55.648;37.602;2023-04-09T09:55:29;16.30;;;9.82;;
73814;SDS011;62145;55.648;37.602;2023-04-09T09:57:57;18.08;;;10.20;;
73814;SDS011;62145;55.648;37.602;2023-04-09T10:00:24;18.08;;;9.75;;
73814;SDS011;62145;55.648;37.602;2023-04-09T10:03:33;17.25;;;10.27;;
73814;SDS011;62145;55.648;37.602;2023-04-09T10:05:42;15.83;;;9.60;;
73814;SDS011;62145;55.648;37.602;2023-04-09T10:08:08;18.90;;;9.68;;
73814;SDS011;62145;55.648;37.602;2023-04-09T10:10:35;17.88;;;9.90;;
73814;SDS011;62145;55.648;37.602;2023-04-09T10:13:01;16.95;;;9.40;;
73814;SDS011;62145;55.648;37.602;2023-04-09T10:15:27;16.17;;;9.27;;
73814;SDS011;62145;55.648;37.602;2023-04-09T10:17:54;17.83;;;9.40;;
73814;SDS011;62145;55.648;37.602;2023-04-09T10:20:27;15.88;;;9.43;;
73814;SDS011;62145;55.648;37.602;2023-04-09T10:22:58;14.55;;;9.13;;
73814;SDS011;62145;55.648;37.602;2023-04-09T10:25:28;15.95;;;9.38;;
73814;SDS011;62145;55.648;37.602;2023-04-09T10:28:00;15.70;;;9.27;;
73814;SDS011;62145;55.648;37.602;2023-04-09T10:30:33;15.02;;;9.70;;
73814;SDS011;62145;55.648;37.602;2023-04-09T10:33:13;17.67;;;9.95;;
73814;SDS011;62145;55.648;37.602;2023-04-09T10:35:41;16.27;;;9.60;;
73814;SDS011;62145;55.648;37.602;2023-04-09T10:38:08;18.77;;;10.68;;
73814;SDS011;62145;55.648;37.602;2023-04-09T10:40:53;17.00;;;9.37;;
73814;SDS011;62145;55.648;37.602;2023-04-09T10:43:19;18.83;;;9.18;;
73814;SDS011;62145;55.648;37.602;2023-04-09T10:45:46;18.63;;;9.88;;
73814;SDS011;62145;55.648;37.602;2023-04-09T10:48:18;19.45;;;11.35;;
73814;SDS011;62145;55.648;37.602;2023-04-09T10:50:44;16.13;;;10.13;;
73814;SDS011;62145;55.648;37.602;2023-04-09T10:53:20;20.88;;;10.05;;
73814;SDS011;62145;55.648;37.602;2023-04-09T10:55:48;17.63;;;8.80;;
73814;SDS011;62145;55.648;37.602;2023-04-09T10:58:15;17.52;;;9.90;;
73814;SDS011;62145;55.648;37.602;2023-04-09T11:00:42;18.83;;;10.27;;
73814;SDS011;62145;55.648;37.602;2023-04-09T11:06:01;17.73;;;10.07;;
73814;SDS011;62145;55.648;37.602;2023-04-09T11:08:35;15.45;;;9.38;;
73814;SDS011;62145;55.648;37.602;2023-04-09T11:11:02;16.30;;;8.98;;
73814;SDS011;62145;55.648;37.602;2023-04-09T11:13:29;17.42;;;9.45;;
73814;SDS011;62145;55.648;37.602;2023-04-09T11:15:55;14.10;;;9.40;;
73814;SDS011;62145;55.648;37.602;2023-04-09T11:18:25;15.70;;;9.57;;
73814;SDS011;62145;55.648;37.602;2023-04-09T11:20:53;15.32;;;9.40;;
73814;SDS011;62145;55.648;37.602;2023-04-09T11:23:26;15.68;;;9.48;;
73814;SDS011;62145;55.648;37.602;2023-04-09T11:25:52;17.45;;;9.52;;
73814;SDS011;62145;55.648;37.602;2023-04-09T11:28:19;16.47;;;9.40;;
73814;SDS011;62145;55.648;37.602;2023-04-09T11:30:45;18.33;;;9.43;;
73814;SDS011;62145;55.648;37.602;2023-04-09T11:33:11;18.70;;;9.80;;
73814;SDS011;62145;55.648;37.602;2023-04-09T11:35:39;14.98;;;9.52;;
73814;SDS011;62145;55.648;37.602;2023-04-09T11:38:06;19.92;;;9.38;;
73814;SDS011;62145;55.648;37.602;2023-04-09T11:40:32;15.57;;;9.10;;
73814;SDS011;62145;55.648;37.602;2023-04-09T11:42:58;16.05;;;9.55;;
73814;SDS011;62145;55.648;37.602;2023-04-09T11:45:25;16.38;;;9.52;;
73814;SDS011;62145;55.648;37.602;2023-04-09T11:47:52;17.83;;;10.25;;
73814;SDS011;62145;55.648;37.602;2023-04-09T11:50:18;17.98;;;9.45;;
73814;SDS011;62145;55.648;37.602;2023-04-09T11:52:45;17.57;;;9.40;;
73814;SDS011;62145;55.648;37.602;2023-04-09T11:55:11;17.48;;;9.40;;
73814;SDS011;62145;55.648;37.602;2023-04-09T11:57:38;16.30;;;10.00;;
73814;SDS011;62145;55.648;37.602;2023-04-09T12:00:13;17.40;;;10.38;;
73814;SDS011;62145;55.648;37.602;2023-04-09T12:02:42;17.38;;;9.77;;
73814;SDS011;62145;55.648;37.602;2023-04-09T12:05:23;16.40;;;9.50;;
73814;SDS011;62145;55.648;37.602;2023-04-09T12:07:51;18.17;;;10.10;;
73814;SDS011;62145;55.648;37.602;2023-04-09T12:10:17;19.75;;;10.32;;
73814;SDS011;62145;55.648;37.602;2023-04-09T12:12:46;20.30;;;9.82;;
73814;SDS011;62145;55.648;37.602;2023-04-09T12:15:22;16.83;;;9.52;;
73814;SDS011;62145;55.648;37.602;2023-04-09T12:20:25;19.40;;;9.88;;
73814;SDS011;62145;55.648;37.602;2023-04-09T12:22:54;15.07;;;9.70;;
73814;SDS011;62145;55.648;37.602;2023-04-09T12:25:20;17.15;;;9.38;;
73814;SDS011;62145;55.648;37.602;2023-04-09T12:27:46;19.00;;;10.63;;
73814;SDS011;62145;55.648;37.602;2023-04-09T12:30:11;17.38;;;10.50;;
73814;SDS011;62145;55.648;37.602;2023-04-09T12:32:37;16.60;;;9.80;;
73814;SDS011;62145;55.648;37.602;2023-04-09T12:35:03;17.15;;;9.63;;
73814;SDS011;62145;55.648;37.602;2023-04-09T12:37:30;16.80;;;8.93;;
73814;SDS011;62145;55.648;37.602;2023-04-09T12:39:55;15.37;;;9.53;;
73814;SDS011;62145;55.648;37.602;2023-04-09T12:42:21;20.25;;;10.05;;
73814;SDS011;62145;55.648;37.602;2023-04-09T12:44:47;18.30;;;9.68;;
73814;SDS011;62145;55.648;37.602;2023-04-09T12:47:13;16.03;;;9.47;;
73814;SDS011;62145;55.648;37.602;2023-04-09T12:49:39;17.50;;;10.27;;
73814;SDS011;62145;55.648;37.602;2023-04-09T12:52:09;18.80;;;9.80;;
73814;SDS011;62145;55.648;37.602;2023-04-09T12:54:35;18.13;;;10.10;;
73814;SDS011;62145;55.648;37.602;2023-04-09T12:57:01;17.38;;;10.00;;
73814;SDS011;62145;55.648;37.602;2023-04-09T12:59:27;18.35;;;9.65;;
73814;SDS011;62145;55.648;37.602;2023-04-09T13:01:53;17.77;;;9.53;;
73814;SDS011;62145;55.648;37.602;2023-04-09T13:04:18;16.38;;;9.48;;
73814;SDS011;62145;55.648;37.602;2023-04-09T13:06:44;15.97;;;9.50;;
73814;SDS011;62145;55.648;37.602;2023-04-09T13:09:11;16.88;;;9.27;;
73814;SDS011;62145;55.648;37.602;2023-04-09T13:11:36;17.02;;;8.85;;
73814;SDS011;62145;55.648;37.602;2023-04-09T13:14:02;16.33;;;9.87;;
73814;SDS011;62145;55.648;37.602;2023-04-09T13:16:28;17.60;;;9.75;;
73814;SDS011;62145;55.648;37.602;2023-04-09T13:18:54;13.93;;;9.40;;
73814;SDS011;62145;55.648;37.602;2023-04-09T13:21:20;16.03;;;9.70;;
73814;SDS011;62145;55.648;37.602;2023-04-09T13:23:45;14.98;;;9.05;;
73814;SDS011;62145;55.648;37.602;2023-04-09T13:26:11;17.37;;;9.60;;
73814;SDS011;62145;55.648;37.602;2023-04-09T13:28:37;15.52;;;9.10;;
73814;SDS011;62145;55.648;37.602;2023-04-09T13:31:04;14.68;;;9.05;;
73814;SDS011;62145;55.648;37.602;2023-04-09T13:33:30;17.67;;;9.33;;
73814;SDS011;62145;55.648;37.602;2023-04-09T13:35:55;19.15;;;9.30;;
73814;SDS011;62145;55.648;37.602;2023-04-09T13:38:21;16.98;;;9.32;;
73814;SDS011;62145;55.648;37.602;2023-04-09T13:40:47;16.33;;;9.13;;
73814;SDS011;62145;55.648;37.602;2023-04-09T13:43:13;19.77;;;9.43;;
73814;SDS011;62145;55.648;37.602;2023-04-09T13:45:42;16.58;;;9.45;;
73814;SDS011;62145;55.648;37.602;2023-04-09T13:48:08;15.97;;;9.40;;
73814;SDS011;62145;55.648;37.602;2023-04-09T13:50:33;23.57;;;9.60;;
73814;SDS011;62145;55.648;37.602;2023-04-09T13:52:59;18.20;;;9.40;;
73814;SDS011;62145;55.648;37.602;2023-04-09T13:55:29;15.20;;;9.38;;
73814;SDS011;62145;55.648;37.602;2023-04-09T13:57:55;18.10;;;9.60;;
73814;SDS011;62145;55.648;37.602;2023-04-09T14:00:21;20.00;;;9.75;;
73814;SDS011;62145;55.648;37.602;2023-04-09T14:02:47;19.15;;;10.20;;
73814;SDS011;62145;55.648;37.602;2023-04-09T14:05:13;18.77;;;9.57;;
73814;SDS011;62145;55.648;37.602;2023-04-09T14:07:38;20.20;;;10.40;;
73814;SDS011;62145;55.648;37.602;2023-04-09T14:10:04;15.77;;;9.52;;
73814;SDS011;62145;55.648;37.602;2023-04-09T14:12:31;15.47;;;8.90;;
73814;SDS011;62145;55.648;37.602;2023-04-09T14:14:56;17.63;;;9.35;;
73814;SDS011;62145;55.648;37.602;2023-04-09T14:17:22;17.73;;;9.83;;
73814;SDS011;62145;55.648;37.602;2023-04-09T14:19:48;19.23;;;10.00;;
73814;SDS011;62145;55.648;37.602;2023-04-09T14:22:14;18.30;;;10.73;;
73814;SDS011;62145;55.648;37.602;2023-04-09T14:24:39;18.70;;;10.03;;
73814;SDS011;62145;55.648;37.602;2023-04-09T14:27:06;16.70;;;9.93;;
73814;SDS011;62145;55.648;37.602;2023-04-09T14:29:32;20.20;;;10.68;;
73814;SDS011;62145;55.648;37.602;2023-04-09T14:31:58;18.20;;;9.73;;
73814;SDS011;62145;55.648;37.602;2023-04-09T14:34:25;18.95;;;10.02;;
73814;SDS011;62145;55.648;37.602;2023-04-09T14:36:51;15.10;;;9.93;;
73814;SDS011;62145;55.648;37.602;2023-04-09T14:39:17;19.17;;;10.30;;